KCWA/CWA METAR and TAF weather

Enter ICAO airport designator
Station Type Date Time Source
KCWA METAR 2018/12/10 16:47 UTC NOAA

KCWA 101647Z 26006KT 1 1/2SM BR OVC002 M08/M09 A3012 RMK VIS 3/4V2


Station Type Date Time Source
KCWA Decoded METAR 2018/12/10 16:47 UTC NOAA

Mosinee / Central Wisconsin, WI, United States (KCWA) 44-47N 089-40W
Dec 10, 2018 - 11:47 AM EST / 2018.12.10 1647 UTC
Wind: from the W (260 degrees) at 7 MPH (6 KT):0
Visibility: 1 1/2 mile(s):0
Sky conditions: overcast
Weather: mist
Temperature: 17 F (-8 C)
Windchill: 6 F (-14 C):1
Dew Point: 15 F (-9 C)
Relative Humidity: 92%
Pressure (altimeter): 30.12 in. Hg (1019 hPa)
ob: KCWA 101647Z 26006KT 1 1/2SM BR OVC002 M08/M09 A3012 RMK VIS 3/4V2
cycle: 17

Station Type Date Time Source
KCWA TAF 2018/12/10 12:57 UTC NOAA

TAF KCWA 101154Z 1012/1112 26004KT 1SM BR BKN004
TEMPO 1012/1016 1/2SM FZFG BKN002
FM101600 26008KT 6SM BR BKN008
FM101900 25008KT P6SM SCT012 SCT200
TEMPO 1104/1108 BKN012
FM110800 29004KT 6SM BR SCT006 OVC012
TEMPO 1108/1112 3SM BR BKN006


Example: see airport list